createdAt,value
2018-10-19T00:00:59.347Z,73.27
2018-10-19T00:03:27.645Z,73.37
2018-10-19T00:05:55.803Z,73.46
2018-10-19T00:08:24.006Z,72.38
2018-10-19T00:10:52.314Z,72.70
2018-10-19T00:13:20.490Z,72.60
2018-10-19T00:15:48.708Z,73.29
2018-10-19T00:18:16.955Z,73.65
2018-10-19T00:20:45.355Z,72.96
2018-10-19T00:23:13.746Z,73.23
2018-10-19T00:25:41.896Z,72.86
2018-10-19T00:28:10.143Z,73.10
2018-10-19T00:30:38.324Z,73.19
2018-10-19T00:33:06.504Z,72.90
2018-10-19T00:35:34.688Z,71.95
2018-10-19T00:38:02.983Z,72.21
2018-10-19T00:40:31.647Z,71.72
2018-10-19T00:42:59.948Z,71.74
2018-10-19T00:45:33.331Z,72.43
2018-10-19T00:48:08.687Z,72.51
2018-10-19T00:50:36.940Z,71.31
2018-10-19T00:53:05.724Z,71.88
2018-10-19T00:55:33.923Z,71.77
2018-10-19T00:58:02.315Z,71.95
2018-10-19T01:00:30.596Z,71.78
2018-10-19T01:02:58.862Z,71.21
2018-10-19T01:05:27.081Z,71.20
2018-10-19T01:07:55.484Z,71.91
2018-10-19T01:10:24.077Z,70.99
2018-10-19T01:12:54.890Z,71.04
2018-10-19T01:15:23.103Z,71.66
2018-10-19T01:17:51.643Z,71.51
2018-10-19T01:20:19.910Z,71.60
2018-10-19T01:22:48.115Z,71.48
2018-10-19T01:25:16.314Z,72.83
2018-10-19T01:27:44.499Z,72.93
2018-10-19T01:30:12.699Z,72.43
2018-10-19T01:32:40.940Z,72.46
2018-10-19T01:35:10.976Z,72.60
2018-10-19T01:37:39.111Z,72.97
2018-10-19T01:40:09.286Z,72.76
2018-10-19T01:42:37.808Z,74.07
2018-10-19T01:45:06.953Z,73.40
2018-10-19T01:47:35.130Z,74.23
2018-10-19T01:50:03.392Z,74.04
2018-10-19T01:52:31.575Z,74.98
2018-10-19T01:54:59.798Z,74.57
2018-10-19T01:57:27.971Z,75.44
2018-10-19T01:59:56.127Z,74.90
2018-10-19T02:02:24.315Z,74.62
2018-10-19T02:04:52.477Z,75.69
2018-10-19T02:07:20.654Z,76.06
2018-10-19T02:09:48.827Z,75.76
2018-10-19T02:12:17.042Z,75.36
2018-10-19T02:14:45.207Z,75.26
2018-10-19T02:17:13.684Z,76.07
2018-10-19T02:19:41.823Z,76.53
2018-10-19T02:22:10.136Z,76.36
2018-10-19T02:24:38.314Z,76.03
2018-10-19T02:27:06.964Z,75.86
2018-10-19T02:29:35.195Z,76.11
2018-10-19T02:32:03.384Z,76.43
2018-10-19T02:34:31.568Z,76.65
2018-10-19T02:36:59.740Z,75.91
2018-10-19T02:39:27.900Z,76.48
2018-10-19T02:41:56.146Z,75.77
2018-10-19T02:44:24.317Z,75.58
2018-10-19T02:46:52.500Z,75.80
2018-10-19T02:49:20.654Z,75.68
2018-10-19T02:51:48.812Z,75.46
2018-10-19T02:54:16.983Z,75.44
2018-10-19T02:56:45.233Z,75.68
2018-10-19T02:59:13.555Z,75.21
2018-10-19T03:01:41.675Z,75.29
2018-10-19T03:04:09.867Z,76.37
2018-10-19T03:06:38.100Z,76.39
2018-10-19T03:09:09.214Z,76.25
2018-10-19T03:11:37.373Z,75.67
2018-10-19T03:14:05.510Z,76.26
2018-10-19T03:16:33.654Z,75.69
2018-10-19T03:19:01.831Z,76.42
2018-10-19T03:21:30.024Z,75.40
2018-10-19T03:23:58.275Z,75.99
2018-10-19T03:26:26.508Z,75.74
2018-10-19T03:28:54.689Z,75.15
2018-10-19T03:31:22.882Z,74.70
2018-10-19T03:33:51.047Z,74.74
2018-10-19T03:36:19.261Z,74.92
2018-10-19T03:38:47.488Z,74.94
2018-10-19T03:41:15.697Z,74.56
2018-10-19T03:43:43.867Z,75.31
2018-10-19T03:46:12.063Z,74.87
2018-10-19T03:48:40.648Z,75.76
2018-10-19T03:51:08.901Z,75.76
2018-10-19T03:53:37.072Z,76.02
2018-10-19T03:56:05.258Z,75.76
2018-10-19T03:58:33.424Z,75.48
2018-10-19T04:01:01.622Z,76.34
2018-10-19T04:03:29.840Z,76.18
2018-10-19T04:05:57.960Z,76.22
2018-10-19T04:08:26.207Z,75.88
2018-10-19T04:10:54.439Z,76.10
2018-10-19T04:13:22.609Z,75.30
2018-10-19T04:15:50.767Z,75.17
2018-10-19T04:18:19.027Z,76.45
2018-10-19T04:20:47.181Z,75.82
2018-10-19T04:23:15.401Z,76.03
2018-10-19T04:25:43.524Z,75.42
2018-10-19T04:28:11.717Z,75.12
2018-10-19T04:30:39.930Z,76.05
2018-10-19T04:33:08.187Z,75.95
2018-10-19T04:35:36.403Z,74.98
2018-10-19T04:38:04.639Z,75.04
2018-10-19T04:40:32.857Z,75.11
2018-10-19T04:43:04.178Z,75.00
2018-10-19T04:45:32.422Z,75.52
2018-10-19T04:48:00.646Z,75.11
2018-10-19T04:50:28.816Z,75.50
2018-10-19T04:52:57.104Z,75.40
2018-10-19T04:55:25.264Z,76.20
2018-10-19T04:57:53.456Z,75.31
2018-10-19T05:00:22.071Z,76.32
2018-10-19T05:02:51.208Z,75.99
2018-10-19T05:05:19.654Z,75.84
2018-10-19T05:07:47.650Z,75.69
2018-10-19T05:10:15.868Z,76.48
2018-10-19T05:12:44.056Z,75.96
2018-10-19T05:15:12.584Z,76.43
2018-10-19T05:17:40.770Z,76.13
2018-10-19T05:20:10.782Z,75.88
2018-10-19T05:22:39.059Z,76.47
2018-10-19T05:25:09.260Z,77.19
2018-10-19T05:27:37.467Z,76.88
2018-10-19T05:30:07.120Z,77.10
2018-10-19T05:32:35.324Z,77.01
2018-10-19T05:35:03.655Z,76.57
2018-10-19T05:37:32.404Z,76.96
2018-10-19T05:40:01.380Z,75.77
2018-10-19T05:42:29.567Z,76.35
2018-10-19T05:44:57.758Z,77.02
2018-10-19T05:47:25.974Z,76.64
2018-10-19T05:49:54.335Z,76.51
2018-10-19T05:52:22.511Z,77.04
2018-10-19T05:54:50.913Z,76.40
2018-10-19T05:57:19.071Z,76.18
2018-10-19T05:59:47.256Z,75.94
2018-10-19T06:02:15.621Z,76.01
2018-10-19T06:04:43.669Z,74.90
2018-10-19T06:07:11.828Z,74.66
2018-10-19T06:09:40.012Z,74.58
2018-10-19T06:12:08.338Z,74.23
2018-10-19T06:14:36.554Z,74.56
2018-10-19T06:17:05.117Z,74.30
2018-10-19T06:19:33.207Z,73.41
2018-10-19T06:22:07.763Z,73.37
2018-10-19T06:24:35.975Z,73.80
2018-10-19T06:27:04.171Z,73.08
2018-10-19T06:29:32.334Z,72.17
2018-10-19T06:32:00.493Z,73.58
2018-10-19T06:34:28.673Z,72.95
2018-10-19T06:36:56.883Z,72.13
2018-10-19T06:39:25.068Z,72.12
2018-10-19T06:41:53.260Z,72.05
2018-10-19T06:44:21.519Z,72.19
2018-10-19T06:46:49.741Z,71.52
2018-10-19T06:49:17.886Z,72.23
2018-10-19T06:51:46.083Z,71.16
2018-10-19T06:54:14.267Z,72.05
2018-10-19T06:56:42.508Z,71.23
2018-10-19T06:59:10.826Z,71.03
2018-10-19T07:01:38.839Z,71.42
2018-10-19T07:04:07.050Z,72.21
2018-10-19T07:06:35.220Z,72.24
2018-10-19T07:09:04.436Z,72.11
2018-10-19T07:11:32.637Z,71.86
2018-10-19T07:14:00.905Z,71.54
2018-10-19T07:16:28.992Z,71.50
2018-10-19T07:18:57.233Z,70.63
2018-10-19T07:21:25.347Z,71.56
2018-10-19T07:23:53.790Z,71.59
2018-10-19T07:26:22.336Z,70.83
2018-10-19T07:28:50.558Z,70.97
2018-10-19T07:31:18.795Z,71.91
2018-10-19T07:33:46.962Z,71.53
2018-10-19T07:36:15.182Z,70.59
2018-10-19T07:38:43.416Z,70.00
2018-10-19T07:41:11.668Z,70.02
2018-10-19T07:43:39.798Z,70.24
2018-10-19T07:46:07.962Z,70.14
2018-10-19T07:48:36.375Z,69.76
2018-10-19T07:51:04.519Z,69.97
2018-10-19T07:53:32.711Z,70.50
2018-10-19T07:56:01.039Z,70.80
2018-10-19T07:58:31.014Z,70.44
2018-10-19T08:00:59.268Z,70.20
2018-10-19T08:03:27.435Z,69.63
2018-10-19T08:05:55.615Z,69.90
2018-10-19T08:08:23.892Z,70.51
2018-10-19T08:10:52.277Z,70.63
2018-10-19T08:13:20.536Z,70.33
2018-10-19T08:15:48.686Z,69.73
2018-10-19T08:18:16.874Z,69.87
2018-10-19T08:20:45.079Z,70.06
2018-10-19T08:23:13.508Z,69.61
2018-10-19T08:25:41.683Z,68.92
2018-10-19T08:28:09.891Z,69.17
2018-10-19T08:30:38.126Z,70.41
2018-10-19T08:33:06.475Z,69.32
2018-10-19T08:35:34.685Z,68.73
2018-10-19T08:38:02.935Z,69.53
2018-10-19T08:40:31.565Z,69.28
2018-10-19T08:42:59.819Z,69.07
2018-10-19T08:45:28.034Z,68.67
2018-10-19T08:47:56.218Z,69.70
2018-10-19T08:50:24.423Z,70.27
2018-10-19T08:52:53.143Z,69.09
2018-10-19T08:55:21.427Z,69.49
2018-10-19T08:57:49.735Z,69.76
2018-10-19T09:00:17.991Z,70.37
2018-10-19T09:02:46.130Z,70.77
2018-10-19T09:05:14.569Z,70.76
2018-10-19T09:07:49.031Z,70.20
2018-10-19T09:10:17.265Z,69.61
2018-10-19T09:12:45.601Z,69.81
2018-10-19T09:15:13.823Z,70.47
2018-10-19T09:17:41.969Z,70.26
2018-10-19T09:20:11.148Z,70.08
2018-10-19T09:22:39.391Z,69.84
2018-10-19T09:25:07.601Z,69.34
2018-10-19T09:27:35.883Z,69.36
2018-10-19T09:30:04.321Z,70.09
2018-10-19T09:32:32.490Z,70.32
2018-10-19T09:35:00.723Z,69.16
2018-10-19T09:37:28.926Z,69.40
2018-10-19T09:39:57.143Z,68.11
2018-10-19T09:42:25.343Z,67.62
2018-10-19T09:44:53.660Z,68.75
2018-10-19T09:47:21.906Z,68.76
2018-10-19T09:49:50.087Z,67.91
2018-10-19T09:52:18.289Z,68.03
2018-10-19T09:54:46.519Z,67.71
2018-10-19T09:57:14.822Z,68.17
2018-10-19T09:59:42.887Z,67.75
2018-10-19T10:02:11.169Z,67.66
2018-10-19T10:04:39.307Z,67.78
2018-10-19T10:07:07.597Z,67.15
2018-10-19T10:09:35.832Z,68.19
2018-10-19T10:12:04.117Z,67.72
2018-10-19T10:14:32.290Z,67.47
2018-10-19T10:17:00.533Z,66.69
2018-10-19T10:19:28.679Z,66.80
2018-10-19T10:21:56.930Z,65.41
2018-10-19T10:24:25.074Z,65.99
2018-10-19T10:26:53.323Z,65.36
2018-10-19T10:29:21.607Z,65.51
2018-10-19T10:31:49.804Z,64.66
2018-10-19T10:34:18.195Z,64.75
2018-10-19T10:36:46.304Z,64.84
2018-10-19T10:39:14.931Z,64.17
2018-10-19T10:41:42.957Z,64.06
2018-10-19T10:44:11.131Z,63.45
2018-10-19T10:46:39.481Z,62.55
2018-10-19T10:49:07.733Z,63.40
2018-10-19T10:51:35.884Z,62.70
2018-10-19T10:54:04.138Z,63.63
2018-10-19T10:56:32.336Z,63.58
2018-10-19T10:59:00.571Z,63.10
2018-10-19T11:01:28.750Z,63.33
2018-10-19T11:04:00.039Z,63.33
2018-10-19T11:06:28.248Z,63.65
2018-10-19T11:08:56.436Z,63.24
2018-10-19T11:11:24.644Z,63.40
2018-10-19T11:13:52.835Z,63.58
2018-10-19T11:16:21.025Z,63.47
2018-10-19T11:18:49.183Z,62.75
2018-10-19T11:21:17.439Z,62.83
2018-10-19T11:23:45.612Z,62.36
2018-10-19T11:26:13.820Z,62.85
2018-10-19T11:28:41.991Z,62.20
2018-10-19T11:31:10.281Z,62.74
2018-10-19T11:33:38.462Z,62.42
2018-10-19T11:36:06.651Z,63.20
2018-10-19T11:38:34.838Z,62.53
2018-10-19T11:41:02.999Z,63.61
2018-10-19T11:43:31.263Z,62.61
2018-10-19T11:45:59.494Z,63.60
2018-10-19T11:48:27.720Z,63.64
2018-10-19T11:50:55.891Z,63.53
2018-10-19T11:53:24.077Z,63.28
2018-10-19T11:55:52.331Z,63.13
2018-10-19T11:58:20.511Z,62.63
2018-10-19T12:00:48.744Z,62.23
2018-10-19T12:03:16.955Z,61.94
2018-10-19T12:05:45.124Z,61.70
2018-10-19T12:08:13.360Z,62.49
2018-10-19T12:10:48.405Z,61.72
2018-10-19T12:13:16.670Z,61.70
2018-10-19T12:15:44.769Z,62.57
2018-10-19T12:18:12.979Z,61.68
2018-10-19T12:20:41.221Z,61.93
2018-10-19T12:23:09.448Z,61.18
2018-10-19T12:25:37.665Z,61.49
2018-10-19T12:28:05.831Z,61.83
2018-10-19T12:30:34.044Z,61.44
2018-10-19T12:33:02.294Z,61.20
2018-10-19T12:35:30.489Z,60.79
2018-10-19T12:37:58.615Z,59.95
2018-10-19T12:40:27.402Z,61.18
2018-10-19T12:42:55.609Z,60.69
2018-10-19T12:46:36.092Z,60.68
2018-10-19T12:49:04.928Z,59.69
2018-10-19T12:51:33.277Z,60.19
2018-10-19T12:54:01.597Z,60.28
2018-10-19T12:56:29.786Z,60.29
2018-10-19T12:58:58.051Z,60.70
2018-10-19T13:01:27.479Z,61.02
2018-10-19T13:03:55.711Z,60.98
2018-10-19T13:06:23.911Z,60.61
2018-10-19T13:08:52.592Z,61.25
2018-10-19T13:11:20.852Z,60.41
2018-10-19T13:13:49.137Z,60.26
2018-10-19T13:16:17.377Z,59.53
2018-10-19T13:18:45.565Z,59.45
2018-10-19T13:21:13.813Z,59.39
2018-10-19T13:23:42.031Z,59.96
2018-10-19T13:26:10.174Z,58.94
2018-10-19T13:28:38.476Z,59.95
2018-10-19T13:31:06.690Z,58.67
2018-10-19T13:33:34.917Z,58.27
2018-10-19T13:36:03.186Z,58.68
2018-10-19T13:38:31.371Z,58.56
2018-10-19T13:40:59.559Z,57.79
2018-10-19T13:43:27.777Z,58.37
2018-10-19T13:45:56.045Z,58.48
2018-10-19T13:48:24.448Z,57.94
2018-10-19T13:50:52.732Z,58.87
2018-10-19T13:53:20.959Z,60.11
2018-10-19T13:55:49.183Z,58.73
2018-10-19T13:58:17.456Z,60.06
2018-10-19T14:00:45.609Z,59.66
2018-10-19T14:03:13.882Z,59.76
2018-10-19T14:05:42.320Z,59.43
2018-10-19T14:08:10.286Z,59.74
2018-10-19T14:10:38.520Z,59.75
2018-10-19T14:13:06.988Z,59.72
2018-10-19T14:15:35.972Z,59.19
2018-10-19T14:18:05.472Z,59.14
2018-10-19T14:20:33.702Z,58.46
2018-10-19T14:23:01.982Z,57.84
2018-10-19T14:25:30.602Z,58.17
2018-10-19T14:27:58.759Z,59.39
2018-10-19T14:30:26.961Z,58.55
2018-10-19T14:32:55.230Z,58.33
2018-10-19T14:35:23.384Z,58.45
2018-10-19T14:37:51.543Z,58.69
2018-10-19T14:40:20.707Z,57.98
2018-10-19T14:42:49.045Z,57.58
2018-10-19T14:45:17.845Z,57.61
2018-10-19T14:47:46.836Z,58.27
2018-10-19T14:50:16.258Z,58.63
2018-10-19T14:52:44.426Z,58.79
2018-10-19T14:55:15.249Z,58.98
2018-10-19T14:57:43.491Z,58.21
2018-10-19T15:00:13.352Z,58.63
2018-10-19T15:02:41.634Z,58.05
2018-10-19T15:05:11.616Z,58.26
2018-10-19T15:07:40.002Z,58.95
2018-10-19T15:10:11.661Z,57.80
2018-10-19T15:12:40.047Z,59.69
2018-10-19T15:15:09.506Z,59.24
2018-10-19T15:17:37.649Z,59.74
2018-10-19T15:20:06.444Z,58.85
2018-10-19T15:22:35.395Z,59.60
2018-10-19T15:25:03.615Z,58.69
2018-10-19T15:27:31.928Z,59.77
2018-10-19T15:30:00.268Z,59.81
2018-10-19T15:32:28.418Z,59.49
2018-10-19T15:34:56.627Z,59.41
2018-10-19T15:37:25.152Z,59.73
2018-10-19T15:39:53.395Z,59.20
2018-10-19T15:42:21.567Z,58.38
2018-10-19T15:44:50.487Z,59.12
2018-10-19T15:47:18.760Z,59.48
2018-10-19T15:49:46.985Z,59.64
2018-10-19T15:52:15.325Z,59.95
2018-10-19T15:54:43.571Z,61.08
2018-10-19T15:57:11.755Z,60.46
2018-10-19T15:59:39.931Z,61.19
2018-10-19T16:02:08.111Z,61.49
2018-10-19T16:04:36.275Z,60.50
2018-10-19T16:07:04.493Z,61.64
2018-10-19T16:09:32.675Z,61.19
2018-10-19T16:12:00.873Z,61.06
2018-10-19T16:14:29.026Z,61.01
2018-10-19T16:16:57.194Z,61.38
2018-10-19T16:19:25.379Z,61.69
2018-10-19T16:21:53.659Z,62.32
2018-10-19T16:24:21.859Z,62.43
2018-10-19T16:26:50.063Z,62.63
2018-10-19T16:29:18.251Z,61.98
2018-10-19T16:31:46.420Z,62.49
2018-10-19T16:34:14.630Z,63.08
2018-10-19T16:36:42.928Z,62.57
2018-10-19T16:39:11.557Z,63.42
2018-10-19T16:41:39.818Z,63.38
2018-10-19T16:44:07.978Z,63.39
2018-10-19T16:46:36.171Z,62.75
2018-10-19T16:49:04.351Z,63.07
2018-10-19T16:51:32.576Z,62.84
2018-10-19T16:54:00.770Z,63.53
2018-10-19T16:56:28.985Z,63.45
2018-10-19T16:58:57.162Z,63.20
2018-10-19T17:01:25.625Z,62.51
2018-10-19T17:03:53.853Z,63.77
2018-10-19T17:06:22.007Z,63.17
2018-10-19T17:08:50.181Z,62.89
2018-10-19T17:11:18.419Z,63.57
2018-10-19T17:13:46.622Z,63.95
2018-10-19T17:16:14.785Z,63.41
2018-10-19T17:18:43.092Z,62.78
2018-10-19T17:21:11.372Z,63.58
2018-10-19T17:23:39.526Z,63.66
2018-10-19T17:26:08.193Z,62.85
2018-10-19T17:28:37.009Z,63.65
2018-10-19T17:31:05.695Z,63.17
2018-10-19T17:33:33.930Z,63.66
2018-10-19T17:36:02.598Z,63.64
2018-10-19T17:38:30.834Z,63.48
2018-10-19T17:40:59.158Z,64.48
2018-10-19T17:43:27.477Z,64.33
2018-10-19T17:45:55.654Z,63.82
2018-10-19T17:48:23.958Z,64.22
2018-10-19T17:50:52.271Z,65.29
2018-10-19T17:53:20.634Z,64.38
2018-10-19T17:55:49.785Z,64.98
2018-10-19T17:58:18.020Z,64.21
2018-10-19T18:00:46.397Z,64.84
2018-10-19T18:03:14.665Z,64.88
2018-10-19T18:05:42.893Z,65.29
2018-10-19T18:08:11.087Z,64.69
2018-10-19T18:10:39.272Z,64.92
2018-10-19T18:13:07.551Z,65.38
2018-10-19T18:15:36.079Z,65.50
2018-10-19T18:18:04.228Z,66.01
2018-10-19T18:20:32.448Z,66.16
2018-10-19T18:23:00.798Z,66.21
2018-10-19T18:25:28.928Z,66.12
2018-10-19T18:27:57.427Z,65.88
2018-10-19T18:30:25.646Z,65.76
2018-10-19T18:32:53.835Z,66.47
2018-10-19T18:35:22.106Z,65.56
2018-10-19T18:37:50.330Z,65.57
2018-10-19T18:40:19.008Z,65.80
2018-10-19T18:42:47.323Z,65.27
2018-10-19T18:45:15.767Z,66.10
2018-10-19T18:47:44.047Z,65.31
2018-10-19T18:50:14.595Z,66.23
2018-10-19T18:52:43.318Z,65.71
2018-10-19T18:55:12.498Z,66.50
2018-10-19T18:57:40.683Z,66.03
2018-10-19T19:00:10.208Z,66.88
2018-10-19T19:02:38.386Z,66.11
2018-10-19T19:05:06.623Z,66.83
2018-10-19T19:07:34.754Z,66.29
2018-10-19T19:10:08.245Z,66.20
2018-10-19T19:12:36.522Z,65.54
2018-10-19T19:15:05.367Z,65.90
2018-10-19T19:17:33.603Z,66.22
2018-10-19T19:20:07.768Z,66.20
2018-10-19T19:22:36.727Z,67.03
2018-10-19T19:25:10.429Z,66.50
2018-10-19T19:27:38.891Z,67.48
2018-10-19T19:30:07.812Z,67.53
2018-10-19T19:32:35.987Z,67.11
2018-10-19T19:35:04.548Z,66.78
2018-10-19T19:37:33.071Z,66.93
2018-10-19T19:40:01.551Z,67.38
2018-10-19T19:42:36.543Z,67.39
2018-10-19T19:45:05.076Z,67.52
2018-10-19T19:47:38.532Z,66.49
2018-10-19T19:50:06.769Z,66.33
2018-10-19T19:52:34.991Z,67.09
2018-10-19T19:55:03.386Z,66.68
2018-10-19T19:57:31.559Z,67.45
2018-10-19T19:59:59.726Z,66.75
2018-10-19T20:02:27.935Z,66.83
2018-10-19T20:04:56.147Z,66.92
2018-10-19T20:07:24.283Z,67.98
2018-10-19T20:09:52.447Z,67.39
2018-10-19T20:12:20.667Z,67.91
2018-10-19T20:14:48.848Z,67.35
2018-10-19T20:17:17.030Z,67.92
2018-10-19T20:19:45.214Z,67.56
2018-10-19T20:22:13.379Z,68.55
2018-10-19T20:24:41.608Z,68.42
2018-10-19T20:27:09.804Z,68.61
2018-10-19T20:29:38.003Z,68.20
2018-10-19T20:32:06.266Z,69.29
2018-10-19T20:34:34.377Z,68.18
2018-10-19T20:37:04.539Z,68.38
2018-10-19T20:39:32.853Z,68.98
2018-10-19T20:42:01.741Z,69.28
2018-10-19T20:44:30.032Z,69.18
2018-10-19T20:46:59.033Z,69.35
2018-10-19T20:49:27.393Z,68.34
2018-10-19T20:51:55.574Z,68.77
2018-10-19T20:54:23.744Z,69.38
2018-10-19T20:56:51.950Z,68.62
2018-10-19T20:59:20.127Z,69.30
2018-10-19T21:01:48.321Z,68.95
2018-10-19T21:04:16.504Z,68.88
2018-10-19T21:06:44.667Z,69.58
2018-10-19T21:09:12.850Z,69.74
2018-10-19T21:11:41.011Z,69.08
2018-10-19T21:14:09.291Z,69.27
2018-10-19T21:16:37.378Z,70.16
2018-10-19T21:19:05.781Z,70.12
2018-10-19T21:21:34.735Z,69.01
2018-10-19T21:24:03.200Z,69.97
2018-10-19T21:26:31.986Z,69.17
2018-10-19T21:29:00.492Z,68.59
2018-10-19T21:31:29.160Z,69.73
2018-10-19T21:33:57.328Z,69.15
2018-10-19T21:36:25.761Z,69.65
2018-10-19T21:38:54.073Z,69.24
2018-10-19T21:41:22.235Z,69.39
2018-10-19T21:43:50.469Z,69.92
2018-10-19T21:46:18.799Z,69.71
2018-10-19T21:48:47.100Z,70.40
2018-10-19T21:51:15.546Z,69.67
2018-10-19T21:53:43.820Z,69.54
2018-10-19T21:56:12.132Z,70.20
2018-10-19T21:58:40.252Z,69.58
2018-10-19T22:01:08.426Z,69.82
2018-10-19T22:03:36.655Z,69.54
2018-10-19T22:06:04.883Z,69.69
2018-10-19T22:08:33.362Z,69.46
2018-10-19T22:11:01.483Z,69.09
2018-10-19T22:13:29.736Z,68.96
2018-10-19T22:15:58.056Z,69.24
2018-10-19T22:18:28.308Z,69.18
2018-10-19T22:20:56.557Z,69.21
2018-10-19T22:23:25.167Z,69.60
2018-10-19T22:25:53.518Z,70.42
2018-10-19T22:28:21.698Z,70.00
2018-10-19T22:30:50.104Z,69.46
2018-10-19T22:33:18.831Z,69.24
2018-10-19T22:35:47.234Z,69.70
2018-10-19T22:38:15.478Z,69.74
2018-10-19T22:40:43.636Z,69.01
2018-10-19T22:43:11.996Z,69.41
2018-10-19T22:45:40.135Z,69.34
2018-10-19T22:48:08.373Z,69.19
2018-10-19T22:50:36.801Z,69.21
2018-10-19T22:53:05.311Z,69.28
2018-10-19T22:55:33.439Z,69.53
2018-10-19T22:58:03.457Z,69.60
2018-10-19T23:00:31.874Z,69.96
2018-10-19T23:20:03.939Z,69.39
2018-10-19T23:22:32.087Z,69.93
2018-10-19T23:25:00.325Z,70.04
2018-10-19T23:27:28.492Z,70.27
2018-10-19T23:29:56.690Z,69.74
2018-10-19T23:32:31.595Z,69.21
2018-10-19T23:34:59.820Z,70.19
2018-10-19T23:37:28.144Z,70.25
2018-10-19T23:39:56.309Z,69.32
2018-10-19T23:42:24.494Z,69.52
2018-10-19T23:44:52.650Z,70.08
2018-10-19T23:47:21.715Z,70.23
2018-10-19T23:49:49.891Z,70.20
2018-10-19T23:52:18.166Z,70.17
2018-10-19T23:54:46.459Z,69.78
2018-10-19T23:57:14.642Z,70.38
2018-10-19T23:59:42.871Z,70.26
